Time;durP1;ratioP1;P1;durP2;ratioP2;P2;SDS_P1;SDS_P2;PMS_P1;PMS_P2;Temp;Humidity;BMP_temperature;BMP_pressure;BME280_temperature;BME280_humidity;BME280_pressure;Samples;Min_cycle;Max_cycle;Signal;HPM_P1;HPM_P2
2022/06/25 00:00:08;;;;;;;5.38;4.88;;;20.10;99.90;;;;;;5065897;28;20182;-76
2022/06/25 00:02:52;;;;;;;4.90;4.50;;;20.10;99.90;;;;;;5068890;28;20217;-76
2022/06/25 00:05:36;;;;;;;7.05;5.38;;;20.00;99.90;;;;;;5069425;28;20657;-76
2022/06/25 00:08:20;;;;;;;8.25;5.32;;;20.00;99.90;;;;;;5068384;28;20197;-76
2022/06/25 00:11:06;;;;;;;10.05;5.15;;;19.90;99.90;;;;;;5068431;28;20225;-78
2022/06/25 00:13:50;;;;;;;9.88;6.10;;;19.90;99.90;;;;;;5064155;28;20590;-75
2022/06/25 00:16:34;;;;;;;5.70;5.25;;;19.80;99.90;;;;;;5067727;28;20190;-76
2022/06/25 00:19:19;;;;;;;7.18;5.38;;;19.80;99.90;;;;;;5063962;28;20248;-76
2022/06/25 00:22:03;;;;;;;6.45;5.85;;;19.80;99.90;;;;;;5067469;28;20210;-76
2022/06/25 00:24:48;;;;;;;6.78;6.10;;;19.80;99.90;;;;;;5061607;28;20188;-76
2022/06/25 00:27:32;;;;;;;7.95;5.75;;;19.70;99.90;;;;;;5062951;28;20233;-75
2022/06/25 00:30:16;;;;;;;6.43;5.63;;;19.80;99.90;;;;;;5066406;28;20191;-76
2022/06/25 00:33:01;;;;;;;7.32;6.22;;;19.70;99.90;;;;;;5070249;28;20348;-76
2022/06/25 00:35:46;;;;;;;7.32;5.68;;;19.70;99.90;;;;;;5067947;28;20248;-76
2022/06/25 00:38:30;;;;;;;6.72;6.15;;;19.60;99.90;;;;;;5070463;28;20209;-75
2022/06/25 00:41:14;;;;;;;7.07;6.20;;;19.60;99.90;;;;;;5076191;28;20252;-76
2022/06/25 00:43:58;;;;;;;7.00;6.30;;;19.60;99.90;;;;;;5065854;28;20209;-75
2022/06/25 00:46:46;;;;;;;7.25;6.55;;;19.50;99.90;;;;;;5068879;28;20228;-76
2022/06/25 00:49:31;;;;;;;7.70;7.00;;;19.50;99.90;;;;;;5072796;28;20597;-75
2022/06/25 00:52:18;;;;;;;7.63;6.93;;;19.50;99.90;;;;;;5070449;28;20213;-76
2022/06/25 00:55:11;;;;;;;7.68;6.88;;;19.50;99.90;;;;;;5066621;28;20328;-76
2022/06/25 00:57:58;;;;;;;8.32;6.60;;;19.50;99.90;;;;;;5065551;28;20214;-76
2022/06/25 01:00:43;;;;;;;8.25;7.45;;;19.50;99.90;;;;;;5064398;28;20259;-75
2022/06/25 01:03:28;;;;;;;7.75;7.07;;;19.40;99.90;;;;;;5067857;28;20322;-76
2022/06/25 01:06:12;;;;;;;8.10;7.32;;;19.40;99.90;;;;;;5064029;28;20182;-76
2022/06/25 01:08:57;;;;;;;7.70;6.90;;;19.30;99.90;;;;;;5061723;28;20319;-76
2022/06/25 01:11:41;;;;;;;8.15;6.70;;;19.30;99.90;;;;;;5065354;28;20233;-76
2022/06/25 01:14:25;;;;;;;7.57;6.95;;;19.30;99.90;;;;;;5067196;28;20274;-76
2022/06/25 01:17:10;;;;;;;7.90;6.93;;;19.30;99.90;;;;;;5071315;28;20186;-75
2022/06/25 01:19:54;;;;;;;7.47;6.53;;;19.30;99.90;;;;;;5086212;28;20181;-76
2022/06/25 01:22:39;;;;;;;10.10;6.85;;;19.20;99.90;;;;;;5070666;28;20656;-76
2022/06/25 01:25:23;;;;;;;6.60;6.00;;;19.20;99.90;;;;;;5068503;28;20186;-77
2022/06/25 01:28:10;;;;;;;8.02;6.70;;;19.10;99.90;;;;;;5072337;28;20258;-76
2022/06/25 01:30:54;;;;;;;6.95;6.22;;;19.10;99.90;;;;;;5068491;28;20187;-76
2022/06/25 01:33:38;;;;;;;10.73;7.57;;;19.10;99.90;;;;;;5073145;28;20257;-76
2022/06/25 01:36:22;;;;;;;7.88;7.18;;;19.10;99.90;;;;;;5066954;28;20181;-77
2022/06/25 01:39:06;;;;;;;7.55;6.55;;;19.10;99.90;;;;;;5070328;28;20257;-76
2022/06/25 01:41:50;;;;;;;7.38;6.68;;;19.00;99.90;;;;;;5072518;28;20249;-76
2022/06/25 01:44:37;;;;;;;8.43;7.32;;;19.00;99.90;;;;;;5070693;28;20206;-76
2022/06/25 01:47:21;;;;;;;8.55;7.75;;;18.90;99.90;;;;;;5069728;28;20181;-75
2022/06/25 01:50:07;;;;;;;9.25;8.40;;;18.90;99.90;;;;;;5071675;28;20186;-75
2022/06/25 01:52:52;;;;;;;9.85;8.93;;;18.90;99.90;;;;;;5064308;28;20210;-75
2022/06/25 01:55:36;;;;;;;9.35;8.38;;;18.80;99.90;;;;;;5063865;28;20218;-76
2022/06/25 01:58:20;;;;;;;9.60;8.55;;;18.80;99.90;;;;;;5069236;28;20231;-76
2022/06/25 02:01:05;;;;;;;10.65;9.65;;;18.80;99.90;;;;;;5071803;28;20190;-75
2022/06/25 02:03:49;;;;;;;12.35;11.10;;;18.80;99.90;;;;;;5072527;28;20714;-75
2022/06/25 02:06:33;;;;;;;12.60;11.50;;;18.80;99.90;;;;;;5068227;28;20285;-76
2022/06/25 02:09:17;;;;;;;13.10;11.70;;;18.80;99.90;;;;;;5071315;28;20201;-75
2022/06/25 02:12:05;;;;;;;13.02;11.63;;;18.80;99.90;;;;;;5070029;28;20261;-75
2022/06/25 02:14:50;;;;;;;14.70;13.10;;;18.80;99.90;;;;;;5081184;28;20228;-75
2022/06/25 02:17:34;;;;;;;14.75;12.63;;;18.70;99.90;;;;;;5072093;28;20205;-75
2022/06/25 02:20:18;;;;;;;14.20;12.80;;;18.70;99.90;;;;;;5063197;28;20551;-78
2022/06/25 02:23:03;;;;;;;13.63;12.18;;;18.70;99.90;;;;;;5087112;28;20255;-75
2022/06/25 02:25:48;;;;;;;15.80;14.30;;;18.70;99.90;;;;;;5067284;28;20201;-75
2022/06/25 02:28:32;;;;;;;15.48;14.05;;;18.70;99.90;;;;;;5068270;28;20225;-75
2022/06/25 02:31:16;;;;;;;15.37;13.87;;;18.70;99.90;;;;;;5078860;28;20248;-75
2022/06/25 02:34:01;;;;;;;15.80;14.30;;;18.60;99.90;;;;;;5071594;28;20193;-75
2022/06/25 02:36:45;;;;;;;15.77;14.18;;;18.60;99.90;;;;;;5070909;28;20186;-75
2022/06/25 02:39:29;;;;;;;15.82;14.15;;;18.60;99.90;;;;;;5066427;28;20272;-75
2022/06/25 02:42:13;;;;;;;16.05;14.48;;;18.50;99.90;;;;;;5077292;28;20267;-75
2022/06/25 02:44:57;;;;;;;19.90;15.30;;;18.50;99.90;;;;;;5068682;28;20242;-75
2022/06/25 02:47:41;;;;;;;16.02;14.43;;;18.50;99.90;;;;;;5065452;28;20267;-75
2022/06/25 02:50:25;;;;;;;16.15;14.63;;;18.50;99.90;;;;;;5067651;28;20551;-75
2022/06/25 02:53:10;;;;;;;18.33;16.53;;;18.40;99.90;;;;;;5069531;28;20210;-75
2022/06/25 02:58:58;;;;;;;20.30;18.13;;;18.40;99.90;;;;;;5063113;28;20210;-75
2022/06/25 03:01:42;;;;;;;21.47;19.37;;;18.30;99.90;;;;;;5077893;28;20210;-75
2022/06/25 03:04:26;;;;;;;22.07;19.73;;;18.30;99.90;;;;;;5064559;28;20179;-75
2022/06/25 03:07:10;;;;;;;21.58;19.30;;;18.30;99.90;;;;;;5069420;28;20183;-76
2022/06/25 03:09:54;;;;;;;22.83;20.60;;;18.30;99.90;;;;;;5067964;28;20209;-76
2022/06/25 03:12:39;;;;;;;25.10;21.63;;;18.30;99.90;;;;;;5063047;28;20228;-75
2022/06/25 03:15:23;;;;;;;24.90;21.70;;;18.30;99.90;;;;;;5058867;28;20206;-74
2022/06/25 03:18:07;;;;;;;25.20;22.70;;;18.30;99.90;;;;;;5064477;28;20301;-76
2022/06/25 03:20:52;;;;;;;24.10;21.70;;;18.30;99.90;;;;;;5065619;28;20192;-75
2022/06/25 03:23:36;;;;;;;25.77;23.05;;;18.30;99.90;;;;;;5068265;28;20206;-75
2022/06/25 03:26:20;;;;;;;25.77;23.07;;;18.30;99.90;;;;;;5076350;28;20317;-76
2022/06/25 03:29:04;;;;;;;25.10;21.97;;;18.30;99.90;;;;;;5065051;28;20189;-75
2022/06/25 03:31:49;;;;;;;26.27;23.47;;;18.30;99.90;;;;;;5072844;28;20206;-75
2022/06/25 03:34:34;;;;;;;26.67;22.97;;;18.30;99.90;;;;;;5067706;28;20232;-75
2022/06/25 03:37:18;;;;;;;27.47;23.17;;;18.30;99.90;;;;;;5058785;28;20182;-76
2022/06/25 03:40:02;;;;;;;25.73;23.03;;;18.30;99.90;;;;;;5066615;28;20190;-75
2022/06/25 03:42:47;;;;;;;26.20;23.35;;;18.20;99.90;;;;;;5069216;28;20281;-75
2022/06/25 03:45:31;;;;;;;25.70;22.63;;;18.20;99.90;;;;;;5063587;28;20183;-74
2022/06/25 03:48:15;;;;;;;26.37;23.50;;;18.20;99.90;;;;;;5067186;28;20244;-75
2022/06/25 03:51:00;;;;;;;27.17;22.60;;;18.20;99.90;;;;;;5062666;28;20724;-75
2022/06/25 03:53:44;;;;;;;27.73;23.20;;;18.20;99.90;;;;;;5066176;28;20210;-75
2022/06/25 03:56:28;;;;;;;25.80;23.10;;;18.20;99.90;;;;;;5080559;28;20223;-75
2022/06/25 03:59:12;;;;;;;26.13;23.37;;;18.20;99.90;;;;;;5058684;28;20289;-75
2022/06/25 04:01:56;;;;;;;24.50;21.83;;;18.20;99.90;;;;;;5067265;28;20214;-75
2022/06/25 04:04:40;;;;;;;29.73;23.47;;;18.20;99.90;;;;;;5062114;28;20186;-76
2022/06/25 04:07:25;;;;;;;26.17;23.33;;;18.20;99.90;;;;;;5059035;28;20258;-75
2022/06/25 04:10:09;;;;;;;27.47;23.23;;;18.30;99.90;;;;;;5066921;28;20185;-75
2022/06/25 04:12:53;;;;;;;25.70;22.90;;;18.30;99.90;;;;;;5059339;28;20222;-75
2022/06/25 04:15:38;;;;;;;25.75;23.05;;;18.20;99.90;;;;;;5064858;28;20236;-75
2022/06/25 04:18:22;;;;;;;28.30;22.87;;;18.20;99.90;;;;;;5063427;28;20297;-76
2022/06/25 04:21:06;;;;;;;28.73;23.13;;;18.20;99.90;;;;;;5065960;28;20190;-75
2022/06/25 04:23:50;;;;;;;27.87;23.07;;;18.30;99.90;;;;;;5069563;28;20201;-75
2022/06/25 04:26:34;;;;;;;25.47;22.10;;;18.30;99.90;;;;;;5062465;28;20274;-75
2022/06/25 04:29:18;;;;;;;33.63;22.33;;;18.30;99.90;;;;;;5079823;28;20251;-76
2022/06/25 04:32:02;;;;;;;28.20;21.90;;;18.30;99.90;;;;;;5066354;28;20210;-75
2022/06/25 04:34:46;;;;;;;25.57;21.90;;;18.30;99.90;;;;;;5068341;28;20225;-76
2022/06/25 04:37:31;;;;;;;23.30;20.87;;;18.30;99.90;;;;;;5066514;28;20290;-75
2022/06/25 04:40:15;;;;;;;23.23;20.43;;;18.40;99.90;;;;;;5081021;28;20194;-74
2022/06/25 04:42:59;;;;;;;25.63;21.13;;;18.40;99.90;;;;;;5073727;28;20218;-75
2022/06/25 04:45:43;;;;;;;21.98;19.60;;;18.50;99.90;;;;;;5073119;28;20227;-76
2022/06/25 04:48:27;;;;;;;26.10;19.73;;;18.50;99.90;;;;;;5088192;28;20207;-75
2022/06/25 04:51:12;;;;;;;23.00;18.02;;;18.50;99.90;;;;;;5088629;28;20550;-75
2022/06/25 04:53:56;;;;;;;20.77;17.73;;;18.50;99.90;;;;;;5065077;28;20260;-74
2022/06/25 04:56:40;;;;;;;24.63;18.20;;;18.60;99.90;;;;;;5067734;28;20189;-75
2022/06/25 04:59:24;;;;;;;21.55;16.42;;;18.60;99.90;;;;;;5068776;28;20215;-74
2022/06/25 05:02:08;;;;;;;19.00;17.00;;;18.70;99.90;;;;;;5070043;28;20209;-74
2022/06/25 05:04:52;;;;;;;18.92;16.95;;;18.70;99.90;;;;;;5069277;28;20215;-75
2022/06/25 05:07:36;;;;;;;23.65;16.65;;;18.80;99.90;;;;;;5064956;28;20229;-75
2022/06/25 05:10:20;;;;;;;18.42;15.88;;;18.90;99.90;;;;;;5067508;28;20195;-74
2022/06/25 05:13:13;;;;;;;16.35;14.70;;;18.90;99.90;;;;;;5069309;28;20732;-75
2022/06/25 05:15:57;;;;;;;16.35;14.57;;;19.00;99.90;;;;;;5069498;28;20594;-75
2022/06/25 05:18:41;;;;;;;16.38;14.57;;;19.10;99.90;;;;;;5063780;28;20205;-75
2022/06/25 05:21:25;;;;;;;16.85;13.25;;;19.10;99.90;;;;;;5068334;28;20599;-74
2022/06/25 05:24:10;;;;;;;15.60;14.00;;;19.20;99.90;;;;;;5079592;28;20221;-76
2022/06/25 05:26:54;;;;;;;14.20;12.70;;;19.30;99.90;;;;;;5070843;28;20182;-75
2022/06/25 05:29:38;;;;;;;14.68;12.38;;;19.30;99.90;;;;;;5065623;28;20214;-75
2022/06/25 05:32:22;;;;;;;12.85;11.55;;;19.40;99.90;;;;;;5073425;28;20213;-75
2022/06/25 05:35:06;;;;;;;12.98;11.50;;;19.40;99.90;;;;;;5070129;28;20316;-75
2022/06/25 05:37:51;;;;;;;15.50;12.50;;;19.50;99.90;;;;;;5067494;28;20205;-76
2022/06/25 05:40:36;;;;;;;17.70;12.93;;;19.60;99.90;;;;;;5070919;28;20324;-75
2022/06/25 05:43:22;;;;;;;16.38;11.60;;;19.60;99.90;;;;;;5084904;28;20225;-75
2022/06/25 05:46:07;;;;;;;11.70;9.57;;;19.70;99.90;;;;;;5065127;28;20289;-76
2022/06/25 05:48:51;;;;;;;18.88;10.20;;;19.80;99.90;;;;;;5066680;28;20198;-75
2022/06/25 05:51:35;;;;;;;11.60;9.95;;;19.80;99.90;;;;;;5061533;28;20603;-76
2022/06/25 05:54:19;;;;;;;10.65;9.55;;;19.90;99.90;;;;;;5067881;28;20220;-76
2022/06/25 05:57:03;;;;;;;14.00;9.98;;;20.00;99.90;;;;;;5060088;28;20303;-76
2022/06/25 05:59:47;;;;;;;12.75;10.23;;;20.00;99.90;;;;;;5068129;28;20186;-76
2022/06/25 06:02:31;;;;;;;11.63;9.52;;;20.10;99.90;;;;;;5071510;28;20218;-76
2022/06/25 06:05:15;;;;;;;11.50;10.43;;;20.10;99.90;;;;;;5066758;28;20271;-76
2022/06/25 06:08:00;;;;;;;13.63;9.65;;;20.20;99.90;;;;;;5069981;28;20209;-75
2022/06/25 06:10:44;;;;;;;11.00;9.60;;;20.20;99.90;;;;;;5064279;28;20197;-75
2022/06/25 06:13:28;;;;;;;10.23;7.15;;;20.20;99.90;;;;;;5072444;28;20210;-75
2022/06/25 06:16:12;;;;;;;6.10;5.60;;;20.30;99.90;;;;;;5072110;28;20186;-77
2022/06/25 06:18:56;;;;;;;9.15;5.15;;;20.40;99.90;;;;;;5070016;28;20632;-78
2022/06/25 06:21:41;;;;;;;5.88;4.28;;;20.40;99.90;;;;;;5066749;28;20252;-79
2022/06/25 06:24:25;;;;;;;7.35;3.83;;;20.50;99.90;;;;;;5064278;28;20677;-78
2022/06/25 06:27:09;;;;;;;4.93;4.30;;;20.60;99.90;;;;;;5067607;28;20256;-77
2022/06/25 06:29:53;;;;;;;5.53;3.72;;;20.60;99.90;;;;;;5064033;28;20291;-78
2022/06/25 06:32:38;;;;;;;4.28;3.50;;;20.70;99.90;;;;;;5069662;28;20795;-77
2022/06/25 06:35:22;;;;;;;4.28;3.10;;;20.80;99.90;;;;;;5066175;28;20194;-76
2022/06/25 06:38:06;;;;;;;4.05;3.47;;;20.80;99.90;;;;;;5065665;28;20249;-80
2022/06/25 06:40:50;;;;;;;6.90;3.38;;;20.90;99.90;;;;;;5073487;28;20181;-77
2022/06/25 06:43:34;;;;;;;5.30;3.55;;;21.00;99.90;;;;;;5067211;28;20229;-79
2022/06/25 06:46:19;;;;;;;3.72;3.42;;;21.00;99.90;;;;;;5067585;28;20185;-78
2022/06/25 06:49:03;;;;;;;8.60;4.00;;;21.10;99.90;;;;;;5065171;28;20550;-79
2022/06/25 06:51:47;;;;;;;5.15;3.88;;;21.10;99.90;;;;;;5069034;28;20210;-78
2022/06/25 06:54:31;;;;;;;5.70;3.40;;;21.20;99.90;;;;;;5070905;28;20213;-78
2022/06/25 06:57:16;;;;;;;4.00;3.10;;;21.20;99.90;;;;;;5069297;28;20186;-78
2022/06/25 07:00:00;;;;;;;4.93;3.38;;;21.20;99.90;;;;;;5068435;28;20217;-78
2022/06/25 07:02:45;;;;;;;7.28;3.35;;;21.20;99.90;;;;;;5081116;28;20756;-79
2022/06/25 07:05:29;;;;;;;3.85;3.50;;;21.30;99.90;;;;;;5067550;28;20704;-79
2022/06/25 07:08:13;;;;;;;4.30;3.45;;;21.40;99.90;;;;;;5066512;28;20677;-78
2022/06/25 07:10:57;;;;;;;4.93;2.80;;;21.40;99.90;;;;;;5067898;28;20221;-79
2022/06/25 07:13:41;;;;;;;4.55;2.70;;;21.50;99.90;;;;;;5069300;28;20675;-78
2022/06/25 07:16:26;;;;;;;3.72;2.88;;;21.50;99.90;;;;;;5066740;28;20636;-78
2022/06/25 07:19:13;;;;;;;5.07;2.95;;;21.70;99.90;;;;;;5066408;28;20271;-78
2022/06/25 07:21:57;;;;;;;6.28;2.70;;;21.70;99.90;;;;;;5066517;28;20214;-79
2022/06/25 07:24:41;;;;;;;4.97;2.60;;;21.80;99.90;;;;;;5067907;28;20673;-79
2022/06/25 07:27:25;;;;;;;4.05;2.25;;;21.90;99.90;;;;;;5068777;28;20190;-79
2022/06/25 07:30:10;;;;;;;7.40;2.65;;;22.00;99.90;;;;;;5066636;28;20254;-77
2022/06/25 07:32:54;;;;;;;6.13;2.40;;;22.00;99.90;;;;;;5052430;28;20218;-76
2022/06/25 07:35:38;;;;;;;5.30;2.63;;;22.10;99.90;;;;;;5078970;28;20262;-74
2022/06/25 07:38:22;;;;;;;3.13;2.20;;;22.30;99.90;;;;;;5062276;28;20326;-73
2022/06/25 07:41:06;;;;;;;4.80;2.42;;;22.40;99.90;;;;;;5064141;28;20198;-73
2022/06/25 07:43:50;;;;;;;2.70;2.00;;;22.40;99.90;;;;;;5065312;28;20214;-78
2022/06/25 07:46:34;;;;;;;3.72;2.22;;;22.50;99.90;;;;;;5060403;28;20244;-75
2022/06/25 07:49:18;;;;;;;2.38;2.17;;;22.60;99.90;;;;;;5067117;28;20186;-75
2022/06/25 07:52:04;;;;;;;2.22;2.03;;;22.60;99.90;;;;;;5065841;28;20272;-74
2022/06/25 07:54:48;;;;;;;5.43;2.47;;;22.70;99.90;;;;;;5061876;28;20229;-76
2022/06/25 07:57:32;;;;;;;4.15;1.85;;;22.70;99.90;;;;;;5064743;28;20248;-75
2022/06/25 08:00:17;;;;;;;7.55;2.35;;;22.80;99.90;;;;;;5068522;28;20186;-76
2022/06/25 08:03:01;;;;;;;4.05;2.40;;;22.90;99.90;;;;;;5065842;28;20218;-76
2022/06/25 08:05:46;;;;;;;3.42;1.70;;;22.90;99.90;;;;;;5065246;28;20191;-77
2022/06/25 08:08:30;;;;;;;2.63;1.75;;;23.00;99.90;;;;;;5064964;28;20193;-76
2022/06/25 08:11:15;;;;;;;5.03;1.95;;;23.10;99.90;;;;;;5066359;28;20214;-76
2022/06/25 08:13:59;;;;;;;4.90;1.88;;;23.10;99.90;;;;;;5070197;28;20617;-76
2022/06/25 08:16:44;;;;;;;2.92;1.60;;;23.10;99.90;;;;;;5086110;28;20178;-75
2022/06/25 08:19:28;;;;;;;6.22;1.75;;;23.30;99.90;;;;;;5064219;28;20230;-75
2022/06/25 08:22:12;;;;;;;4.45;2.00;;;23.30;99.90;;;;;;5066940;28;20223;-76
2022/06/25 08:24:56;;;;;;;2.35;1.60;;;23.40;99.90;;;;;;5061282;28;20187;-76
2022/06/25 08:27:51;;;;;;;4.05;1.60;;;23.50;99.90;;;;;;5068662;28;20273;-77
2022/06/25 08:30:36;;;;;;;6.80;2.00;;;23.50;99.90;;;;;;5066478;28;20185;-76
2022/06/25 08:33:20;;;;;;;2.88;1.65;;;23.60;99.90;;;;;;5056354;28;20252;-76
2022/06/25 08:36:04;;;;;;;2.97;1.63;;;23.60;99.90;;;;;;5064167;28;20244;-76
2022/06/25 08:38:48;;;;;;;2.63;1.40;;;23.80;99.90;;;;;;5058741;28;20349;-76
2022/06/25 08:41:32;;;;;;;7.15;1.88;;;23.80;99.90;;;;;;5067705;28;20243;-76
2022/06/25 08:44:16;;;;;;;3.53;1.30;;;23.90;99.90;;;;;;5058371;28;20198;-77
2022/06/25 08:47:00;;;;;;;5.05;1.70;;;23.90;99.90;;;;;;5072311;28;20190;-76
2022/06/25 08:49:45;;;;;;;2.88;1.20;;;24.00;99.90;;;;;;5063814;28;20182;-76
2022/06/25 08:52:31;;;;;;;6.85;1.40;;;23.90;99.90;;;;;;5066059;28;20233;-76
2022/06/25 08:55:30;;;;;;;3.78;1.17;;;24.00;99.90;;;;;;5063527;28;20293;-76
2022/06/25 08:58:15;;;;;;;2.50;1.55;;;24.10;99.90;;;;;;5056694;28;20220;-75
2022/06/25 09:00:59;;;;;;;1.77;1.40;;;24.10;99.90;;;;;;5066968;28;20233;-76
2022/06/25 09:03:44;;;;;;;3.80;1.33;;;24.10;99.90;;;;;;5066135;28;20263;-76
2022/06/25 09:06:28;;;;;;;1.50;1.20;;;24.20;99.90;;;;;;5067530;28;20273;-76
2022/06/25 09:09:15;;;;;;;2.45;1.27;;;24.30;99.90;;;;;;5068738;28;20661;-76
2022/06/25 09:12:05;;;;;;;1.48;0.80;;;24.50;99.90;;;;;;5065532;28;20225;-76
2022/06/25 09:14:50;;;;;;;6.07;0.90;;;24.50;99.90;;;;;;5070508;28;20201;-76
2022/06/25 09:17:34;;;;;;;3.05;1.10;;;24.50;99.90;;;;;;5065353;28;20182;-76
2022/06/25 09:20:20;;;;;;;6.20;1.27;;;24.60;99.90;;;;;;5066105;28;20189;-76
2022/06/25 09:23:06;;;;;;;4.05;1.05;;;24.70;99.90;;;;;;5082684;28;20579;-76
2022/06/25 09:26:25;;;;;;;3.92;0.95;;;24.70;99.90;;;;;;5066115;28;20205;-76
2022/06/25 09:29:10;;;;;;;4.40;1.27;;;24.80;99.90;;;;;;5010445;28;20251;-76
2022/06/25 09:31:54;;;;;;;4.65;1.05;;;24.80;99.90;;;;;;5061780;28;20260;-76
2022/06/25 09:34:39;;;;;;;4.13;1.17;;;24.80;99.90;;;;;;5067637;28;20242;-75
2022/06/25 09:37:25;;;;;;;2.65;0.88;;;24.90;99.90;;;;;;5071187;28;20244;-76
2022/06/25 09:40:10;;;;;;;2.58;1.15;;;25.00;99.90;;;;;;5070863;28;20651;-76
2022/06/25 09:42:56;;;;;;;15.25;1.67;;;25.00;99.90;;;;;;5069004;28;20213;-76
2022/06/25 09:45:48;;;;;;;3.25;1.00;;;25.10;99.90;;;;;;5067723;28;20217;-76
2022/06/25 09:48:35;;;;;;;1.77;1.00;;;25.10;99.90;;;;;;5083380;28;20591;-76
2022/06/25 09:51:23;;;;;;;4.35;1.00;;;25.10;99.90;;;;;;5068880;28;20224;-76
2022/06/25 09:54:09;;;;;;;2.10;1.00;;;25.10;99.90;;;;;;5071880;28;20197;-76
2022/06/25 09:56:54;;;;;;;5.80;1.17;;;25.20;99.90;;;;;;5070452;28;20264;-75
2022/06/25 09:59:41;;;;;;;2.47;1.10;;;25.20;99.90;;;;;;5069623;28;20322;-76
2022/06/25 10:02:29;;;;;;;2.83;1.20;;;25.30;99.90;;;;;;5063961;28;20221;-76
2022/06/25 10:05:17;;;;;;;4.75;1.20;;;25.30;99.90;;;;;;5066627;28;20599;-76
2022/06/25 10:08:05;;;;;;;3.50;1.33;;;25.40;99.90;;;;;;5069140;28;20257;-76
2022/06/25 10:10:52;;;;;;;1.75;1.17;;;25.50;99.90;;;;;;5071329;28;20268;-76
2022/06/25 10:13:36;;;;;;;1.23;0.90;;;25.60;99.90;;;;;;5067158;28;20218;-75
2022/06/25 10:16:23;;;;;;;3.78;1.08;;;25.60;99.90;;;;;;5066269;28;20190;-75
2022/06/25 10:19:10;;;;;;;2.83;1.30;;;25.60;99.90;;;;;;5072779;28;20218;-75
2022/06/25 10:21:55;;;;;;;5.78;1.30;;;25.60;99.90;;;;;;5069693;28;20213;-75
2022/06/25 10:24:39;;;;;;;3.00;1.05;;;25.60;99.90;;;;;;5067783;28;20217;-75
2022/06/25 10:27:24;;;;;;;3.92;1.10;;;25.70;99.90;;;;;;5068738;28;20274;-75
2022/06/25 10:30:10;;;;;;;3.55;1.48;;;25.70;99.90;;;;;;5069823;28;20186;-75
2022/06/25 10:32:56;;;;;;;1.58;1.13;;;25.90;99.90;;;;;;5069316;28;20238;-75
2022/06/25 10:35:40;;;;;;;6.22;1.38;;;25.90;99.90;;;;;;5068851;28;20186;-76
2022/06/25 10:38:26;;;;;;;4.45;1.10;;;25.90;99.90;;;;;;5069194;28;20237;-76
2022/06/25 10:44:20;;;;;;;2.25;1.08;;;26.00;99.90;;;;;;5064222;28;20191;-75
2022/06/25 10:47:11;;;;;;;3.33;1.25;;;26.00;99.90;;;;;;5066200;28;20186;-75
2022/06/25 10:50:21;;;;;;;0.95;0.85;;;26.00;99.90;;;;;;5065744;28;20236;-74
2022/06/25 10:53:08;;;;;;;1.73;0.93;;;26.10;99.90;;;;;;5068320;28;20703;-75
2022/06/25 10:55:52;;;;;;;3.65;1.30;;;26.30;99.90;;;;;;5078123;28;20202;-75
2022/06/25 10:58:46;;;;;;;1.88;1.38;;;26.30;99.90;;;;;;5068531;28;20206;-75
2022/06/25 11:01:32;;;;;;;1.52;1.20;;;26.40;99.90;;;;;;5066030;28;20220;-75
2022/06/25 11:04:16;;;;;;;2.83;1.08;;;26.40;99.90;;;;;;5064767;28;20181;-75
2022/06/25 11:07:17;;;;;;;3.70;1.08;;;26.40;99.90;;;;;;5063982;28;20190;-76
2022/06/25 11:10:03;;;;;;;2.45;1.20;;;26.40;99.90;;;;;;5080460;28;20193;-76
2022/06/25 11:12:48;;;;;;;3.50;1.38;;;26.40;99.90;;;;;;5063346;28;20234;-77
2022/06/25 11:15:39;;;;;;;3.10;1.08;;;26.30;99.90;;;;;;5070599;28;20233;-77
2022/06/25 11:18:24;;;;;;;1.50;0.90;;;26.30;99.90;;;;;;5063499;28;20620;-78
2022/06/25 11:21:09;;;;;;;4.80;1.02;;;26.30;99.90;;;;;;5065238;28;20286;-77
2022/06/25 11:24:04;;;;;;;3.53;1.33;;;26.40;99.90;;;;;;5068219;28;20275;-77
2022/06/25 11:29:53;;;;;;;6.53;1.23;;;26.70;99.90;;;;;;5066069;28;20209;-78
2022/06/25 11:32:43;;;;;;;3.60;1.40;;;26.70;99.90;;;;;;5068828;28;20252;-78
2022/06/25 11:35:42;;;;;;;7.65;1.40;;;26.70;99.90;;;;;;5067994;28;20248;-78
2022/06/25 11:38:26;;;;;;;1.30;0.90;;;26.70;99.90;;;;;;5094053;28;20217;-77
2022/06/25 11:41:27;;;;;;;0.95;0.88;;;26.70;99.90;;;;;;5068359;28;20570;-77
2022/06/25 11:44:11;;;;;;;1.83;1.15;;;26.70;99.90;;;;;;5065866;28;20181;-78
2022/06/25 11:46:56;;;;;;;4.13;1.13;;;26.70;99.90;;;;;;5068755;28;20853;-78
2022/06/25 11:49:42;;;;;;;2.03;1.08;;;26.70;99.90;;;;;;5069349;28;20189;-76
2022/06/25 11:52:27;;;;;;;2.90;1.20;;;26.60;99.90;;;;;;5059486;28;20225;-77
2022/06/25 11:55:11;;;;;;;3.45;1.23;;;26.60;99.90;;;;;;5069472;28;20225;-76
2022/06/25 11:57:58;;;;;;;5.30;1.60;;;26.70;99.90;;;;;;5067136;28;20220;-78
2022/06/25 12:00:48;;;;;;;2.85;1.23;;;26.70;99.90;;;;;;5063235;28;20186;-77
2022/06/25 12:03:33;;;;;;;4.13;1.20;;;26.70;99.90;;;;;;5067608;28;20256;-77
2022/06/25 12:06:17;;;;;;;2.38;1.35;;;26.70;99.90;;;;;;5062556;28;20183;-78
2022/06/25 12:09:02;;;;;;;1.70;1.02;;;26.70;99.90;;;;;;5085662;28;20198;-78
2022/06/25 12:11:53;;;;;;;3.58;1.08;;;26.70;99.90;;;;;;5065400;28;20751;-78
2022/06/25 12:14:38;;;;;;;3.50;1.50;;;26.70;99.90;;;;;;5063669;28;20270;-78
2022/06/25 12:17:30;;;;;;;1.30;1.20;;;26.60;99.90;;;;;;5060499;28;20240;-78
2022/06/25 12:20:15;;;;;;;5.22;1.40;;;26.70;99.90;;;;;;5065350;28;20218;-77
2022/06/25 12:23:01;;;;;;;2.25;1.08;;;26.70;99.90;;;;;;5066988;28;20233;-78
2022/06/25 12:25:47;;;;;;;4.65;1.20;;;26.80;99.90;;;;;;5070314;28;20699;-78
2022/06/25 12:28:37;;;;;;;2.30;1.38;;;26.80;99.90;;;;;;5070376;28;20189;-78
2022/06/25 12:31:22;;;;;;;2.25;1.20;;;27.00;99.90;;;;;;5066605;28;20244;-78
2022/06/25 12:34:07;;;;;;;1.85;1.23;;;27.00;99.90;;;;;;5070660;28;20259;-78
2022/06/25 12:36:53;;;;;;;3.85;1.50;;;26.90;99.90;;;;;;5061716;28;20213;-78
2022/06/25 12:39:44;;;;;;;4.65;1.45;;;26.90;99.90;;;;;;5068260;28;20206;-78
2022/06/25 12:42:33;;;;;;;4.75;1.10;;;26.80;99.90;;;;;;5072499;28;20225;-78
2022/06/25 12:45:19;;;;;;;3.45;1.30;;;26.70;99.90;;;;;;5060852;28;20183;-78
2022/06/25 12:48:05;;;;;;;2.47;1.20;;;26.70;99.90;;;;;;5057969;28;20279;-78
2022/06/25 12:50:50;;;;;;;5.05;1.30;;;26.80;99.90;;;;;;5060922;28;20193;-79
2022/06/25 12:53:35;;;;;;;2.90;1.30;;;26.80;99.90;;;;;;5070033;28;20228;-78
2022/06/25 12:56:19;;;;;;;2.13;1.27;;;26.90;99.90;;;;;;5077712;28;20229;-78
2022/06/25 12:59:06;;;;;;;2.63;1.10;;;26.80;99.90;;;;;;5069777;28;20609;-78
2022/06/25 13:01:50;;;;;;;4.88;1.35;;;26.80;99.90;;;;;;5070678;28;20217;-78
2022/06/25 13:04:34;;;;;;;5.32;1.17;;;26.80;99.90;;;;;;5068722;28;20182;-78
2022/06/25 13:07:19;;;;;;;2.05;1.10;;;26.90;99.90;;;;;;5070954;28;20182;-78
2022/06/25 13:10:04;;;;;;;2.30;1.20;;;27.00;99.90;;;;;;5067467;28;20213;-77
2022/06/25 13:12:50;;;;;;;4.22;1.30;;;27.00;99.90;;;;;;5071218;28;20213;-78
2022/06/25 13:15:35;;;;;;;1.50;1.40;;;27.00;99.90;;;;;;5061717;28;20190;-78
2022/06/25 13:18:19;;;;;;;2.47;1.20;;;27.00;99.90;;;;;;5063079;28;20206;-78
2022/06/25 13:21:03;;;;;;;1.83;1.17;;;26.90;99.90;;;;;;5062381;28;20186;-78
2022/06/25 13:23:48;;;;;;;2.70;1.30;;;26.90;99.90;;;;;;5059444;28;20758;-79
2022/06/25 13:26:32;;;;;;;4.65;1.30;;;26.90;99.90;;;;;;5090323;28;20226;-78
2022/06/25 13:29:16;;;;;;;2.38;1.13;;;26.90;99.90;;;;;;5061846;28;20241;-78
2022/06/25 13:32:00;;;;;;;4.40;1.30;;;26.90;99.90;;;;;;5063414;28;20656;-79
2022/06/25 13:34:47;;;;;;;1.30;1.02;;;26.90;99.90;;;;;;5064404;28;20222;-78
2022/06/25 13:37:31;;;;;;;2.05;1.50;;;27.00;99.90;;;;;;5062587;28;20185;-78
2022/06/25 13:40:15;;;;;;;6.50;1.20;;;27.20;99.90;;;;;;5061871;28;20197;-78
2022/06/25 13:42:59;;;;;;;1.88;1.10;;;27.30;99.90;;;;;;5063694;28;20214;-78
2022/06/25 13:45:43;;;;;;;2.00;1.20;;;27.40;99.90;;;;;;5062347;28;20206;-79
2022/06/25 13:48:27;;;;;;;2.47;1.10;;;27.40;99.90;;;;;;5064318;28;20221;-79
2022/06/25 13:51:12;;;;;;;1.83;1.00;;;27.40;99.90;;;;;;5063020;28;20214;-78
2022/06/25 13:53:57;;;;;;;2.58;1.63;;;27.40;99.90;;;;;;5059187;28;20225;-79
2022/06/25 13:56:41;;;;;;;1.77;1.30;;;27.30;99.90;;;;;;5063677;28;20236;-77
2022/06/25 13:59:26;;;;;;;3.80;1.20;;;27.30;99.90;;;;;;5060397;28;20210;-78
2022/06/25 14:02:10;;;;;;;2.95;1.27;;;27.30;99.90;;;;;;5063540;28;20264;-78
2022/06/25 14:04:54;;;;;;;2.97;1.40;;;27.30;99.90;;;;;;5059944;28;20201;-79
2022/06/25 14:07:38;;;;;;;2.13;1.10;;;27.30;99.90;;;;;;5061037;28;20198;-78
2022/06/25 14:10:22;;;;;;;1.98;1.20;;;27.30;99.90;;;;;;5060776;28;20189;-80
2022/06/25 14:13:06;;;;;;;1.48;1.10;;;27.30;99.90;;;;;;5058501;28;20318;-79
2022/06/25 14:15:51;;;;;;;2.67;1.27;;;27.40;99.90;;;;;;5062547;28;20197;-79
2022/06/25 14:18:35;;;;;;;3.90;1.20;;;27.40;99.90;;;;;;5060788;28;20225;-79
2022/06/25 14:21:19;;;;;;;1.35;1.25;;;27.50;99.90;;;;;;5063434;28;20190;-78